sensor_id;sensor_type;location;lat;lon;timestamp;P1;durP1;ratioP1;P2;durP2;ratioP2
57029;SDS011;42920;45.306;20.448;2023-07-02T00:00:03;9.70;;;5.63;;
57029;SDS011;42920;45.306;20.448;2023-07-02T00:02:30;10.77;;;6.68;;
57029;SDS011;42920;45.306;20.448;2023-07-02T00:04:56;11.00;;;6.43;;
57029;SDS011;42920;45.306;20.448;2023-07-02T00:07:22;11.70;;;6.18;;
57029;SDS011;42920;45.306;20.448;2023-07-02T00:09:48;11.25;;;5.90;;
57029;SDS011;42920;45.306;20.448;2023-07-02T00:12:13;9.55;;;6.18;;
57029;SDS011;42920;45.306;20.448;2023-07-02T00:14:39;10.27;;;6.55;;
57029;SDS011;42920;45.306;20.448;2023-07-02T00:17:05;10.45;;;5.68;;
57029;SDS011;42920;45.306;20.448;2023-07-02T00:19:31;12.35;;;6.03;;
57029;SDS011;42920;45.306;20.448;2023-07-02T00:21:57;11.15;;;5.72;;
57029;SDS011;42920;45.306;20.448;2023-07-02T00:24:23;9.75;;;6.43;;
57029;SDS011;42920;45.306;20.448;2023-07-02T00:26:49;11.13;;;6.10;;
57029;SDS011;42920;45.306;20.448;2023-07-02T00:29:14;11.63;;;6.07;;
57029;SDS011;42920;45.306;20.448;2023-07-02T00:31:40;14.05;;;7.60;;
57029;SDS011;42920;45.306;20.448;2023-07-02T00:34:06;10.63;;;6.43;;
57029;SDS011;42920;45.306;20.448;2023-07-02T00:36:32;10.73;;;6.25;;
57029;SDS011;42920;45.306;20.448;2023-07-02T00:38:58;11.70;;;6.15;;
57029;SDS011;42920;45.306;20.448;2023-07-02T00:41:24;10.48;;;5.80;;
57029;SDS011;42920;45.306;20.448;2023-07-02T00:43:50;7.88;;;5.55;;
57029;SDS011;42920;45.306;20.448;2023-07-02T00:46:19;10.55;;;5.82;;
57029;SDS011;42920;45.306;20.448;2023-07-02T00:48:55;8.93;;;5.53;;
57029;SDS011;42920;45.306;20.448;2023-07-02T00:51:22;13.23;;;7.10;;
57029;SDS011;42920;45.306;20.448;2023-07-02T00:53:50;9.20;;;6.25;;
57029;SDS011;42920;45.306;20.448;2023-07-02T00:56:17;12.07;;;6.85;;
57029;SDS011;42920;45.306;20.448;2023-07-02T00:58:44;11.85;;;6.40;;
57029;SDS011;42920;45.306;20.448;2023-07-02T01:06:24;11.45;;;7.57;;
57029;SDS011;42920;45.306;20.448;2023-07-02T01:08:53;11.80;;;6.25;;
57029;SDS011;42920;45.306;20.448;2023-07-02T01:11:27;10.93;;;6.53;;
57029;SDS011;42920;45.306;20.448;2023-07-02T01:13:59;11.00;;;6.45;;
57029;SDS011;42920;45.306;20.448;2023-07-02T01:16:38;11.77;;;6.85;;
57029;SDS011;42920;45.306;20.448;2023-07-02T01:19:11;13.93;;;6.97;;
57029;SDS011;42920;45.306;20.448;2023-07-02T01:21:47;16.85;;;7.38;;
57029;SDS011;42920;45.306;20.448;2023-07-02T01:24:14;14.55;;;7.45;;
57029;SDS011;42920;45.306;20.448;2023-07-02T01:26:40;11.02;;;6.85;;
57029;SDS011;42920;45.306;20.448;2023-07-02T01:29:39;12.30;;;6.85;;
57029;SDS011;42920;45.306;20.448;2023-07-02T01:32:01;10.70;;;6.28;;
57029;SDS011;42920;45.306;20.448;2023-07-02T01:34:27;11.93;;;7.03;;
57029;SDS011;42920;45.306;20.448;2023-07-02T01:36:53;10.30;;;6.78;;
57029;SDS011;42920;45.306;20.448;2023-07-02T01:39:19;10.52;;;6.30;;
57029;SDS011;42920;45.306;20.448;2023-07-02T01:41:50;23.02;;;7.03;;
57029;SDS011;42920;45.306;20.448;2023-07-02T01:44:18;13.38;;;7.28;;
57029;SDS011;42920;45.306;20.448;2023-07-02T01:46:44;14.95;;;7.22;;
57029;SDS011;42920;45.306;20.448;2023-07-02T01:49:14;12.80;;;7.97;;
57029;SDS011;42920;45.306;20.448;2023-07-02T01:51:52;14.68;;;8.15;;
57029;SDS011;42920;45.306;20.448;2023-07-02T01:54:20;12.30;;;7.43;;
57029;SDS011;42920;45.306;20.448;2023-07-02T01:56:46;15.38;;;7.28;;
57029;SDS011;42920;45.306;20.448;2023-07-02T01:59:13;16.25;;;7.50;;
57029;SDS011;42920;45.306;20.448;2023-07-02T02:01:39;11.98;;;6.90;;
57029;SDS011;42920;45.306;20.448;2023-07-02T02:04:08;10.93;;;6.75;;
57029;SDS011;42920;45.306;20.448;2023-07-02T02:06:35;12.38;;;6.60;;
57029;SDS011;42920;45.306;20.448;2023-07-02T02:09:03;13.25;;;7.90;;
57029;SDS011;42920;45.306;20.448;2023-07-02T02:11:29;14.48;;;7.90;;
57029;SDS011;42920;45.306;20.448;2023-07-02T02:13:56;12.00;;;7.35;;
57029;SDS011;42920;45.306;20.448;2023-07-02T02:16:22;11.57;;;6.72;;
57029;SDS011;42920;45.306;20.448;2023-07-02T02:18:48;14.57;;;7.18;;
57029;SDS011;42920;45.306;20.448;2023-07-02T02:21:18;13.95;;;7.95;;
57029;SDS011;42920;45.306;20.448;2023-07-02T02:23:44;13.77;;;7.45;;
57029;SDS011;42920;45.306;20.448;2023-07-02T02:26:10;13.68;;;7.05;;
57029;SDS011;42920;45.306;20.448;2023-07-02T02:28:36;11.32;;;6.78;;
57029;SDS011;42920;45.306;20.448;2023-07-02T02:31:02;11.90;;;7.10;;
57029;SDS011;42920;45.306;20.448;2023-07-02T02:33:27;11.48;;;6.97;;
57029;SDS011;42920;45.306;20.448;2023-07-02T02:35:53;13.25;;;7.85;;
57029;SDS011;42920;45.306;20.448;2023-07-02T02:38:19;11.82;;;7.28;;
57029;SDS011;42920;45.306;20.448;2023-07-02T02:40:45;11.10;;;6.75;;
57029;SDS011;42920;45.306;20.448;2023-07-02T02:43:10;11.57;;;6.95;;
57029;SDS011;42920;45.306;20.448;2023-07-02T02:45:36;11.85;;;7.38;;
57029;SDS011;42920;45.306;20.448;2023-07-02T02:48:02;14.10;;;7.65;;
57029;SDS011;42920;45.306;20.448;2023-07-02T02:50:27;17.60;;;7.43;;
57029;SDS011;42920;45.306;20.448;2023-07-02T02:52:53;11.63;;;7.82;;
57029;SDS011;42920;45.306;20.448;2023-07-02T02:55:19;10.73;;;6.93;;
57029;SDS011;42920;45.306;20.448;2023-07-02T02:57:44;13.90;;;8.45;;
57029;SDS011;42920;45.306;20.448;2023-07-02T03:00:10;16.10;;;8.38;;
57029;SDS011;42920;45.306;20.448;2023-07-02T03:02:37;12.80;;;7.28;;
57029;SDS011;42920;45.306;20.448;2023-07-02T03:05:04;15.60;;;7.43;;
57029;SDS011;42920;45.306;20.448;2023-07-02T03:07:32;11.85;;;7.68;;
57029;SDS011;42920;45.306;20.448;2023-07-02T03:09:57;17.42;;;8.20;;
57029;SDS011;42920;45.306;20.448;2023-07-02T03:12:25;15.32;;;7.68;;
57029;SDS011;42920;45.306;20.448;2023-07-02T03:14:51;13.73;;;7.30;;
57029;SDS011;42920;45.306;20.448;2023-07-02T03:17:19;12.52;;;8.18;;
57029;SDS011;42920;45.306;20.448;2023-07-02T03:19:48;12.35;;;7.32;;
57029;SDS011;42920;45.306;20.448;2023-07-02T03:22:14;11.48;;;7.85;;
57029;SDS011;42920;45.306;20.448;2023-07-02T03:24:40;16.15;;;7.93;;
57029;SDS011;42920;45.306;20.448;2023-07-02T03:27:06;12.90;;;7.78;;
57029;SDS011;42920;45.306;20.448;2023-07-02T03:29:33;13.27;;;7.57;;
57029;SDS011;42920;45.306;20.448;2023-07-02T03:31:59;11.77;;;7.30;;
57029;SDS011;42920;45.306;20.448;2023-07-02T03:34:25;12.73;;;8.00;;
57029;SDS011;42920;45.306;20.448;2023-07-02T03:36:51;12.60;;;8.00;;
57029;SDS011;42920;45.306;20.448;2023-07-02T03:39:17;12.18;;;7.65;;
57029;SDS011;42920;45.306;20.448;2023-07-02T03:41:43;13.10;;;8.30;;
57029;SDS011;42920;45.306;20.448;2023-07-02T03:44:09;14.85;;;7.90;;
57029;SDS011;42920;45.306;20.448;2023-07-02T03:46:35;13.18;;;7.43;;
57029;SDS011;42920;45.306;20.448;2023-07-02T03:49:01;18.88;;;9.07;;
57029;SDS011;42920;45.306;20.448;2023-07-02T03:51:28;14.85;;;8.70;;
57029;SDS011;42920;45.306;20.448;2023-07-02T03:53:54;13.88;;;8.35;;
57029;SDS011;42920;45.306;20.448;2023-07-02T03:56:20;15.23;;;9.48;;
57029;SDS011;42920;45.306;20.448;2023-07-02T03:58:45;12.98;;;8.20;;
57029;SDS011;42920;45.306;20.448;2023-07-02T04:01:11;16.35;;;9.13;;
57029;SDS011;42920;45.306;20.448;2023-07-02T04:03:37;13.77;;;8.73;;
57029;SDS011;42920;45.306;20.448;2023-07-02T04:06:03;13.10;;;9.15;;
57029;SDS011;42920;45.306;20.448;2023-07-02T04:08:32;13.85;;;9.90;;
57029;SDS011;42920;45.306;20.448;2023-07-02T04:10:58;13.82;;;9.45;;
57029;SDS011;42920;45.306;20.448;2023-07-02T04:13:23;13.50;;;9.15;;
57029;SDS011;42920;45.306;20.448;2023-07-02T04:15:49;11.43;;;8.38;;
57029;SDS011;42920;45.306;20.448;2023-07-02T04:18:15;16.65;;;9.68;;
57029;SDS011;42920;45.306;20.448;2023-07-02T04:20:41;12.32;;;9.10;;
57029;SDS011;42920;45.306;20.448;2023-07-02T04:23:07;15.57;;;9.55;;
57029;SDS011;42920;45.306;20.448;2023-07-02T04:25:32;11.60;;;7.97;;
57029;SDS011;42920;45.306;20.448;2023-07-02T04:27:58;13.50;;;8.88;;
57029;SDS011;42920;45.306;20.448;2023-07-02T04:30:24;13.13;;;9.32;;
57029;SDS011;42920;45.306;20.448;2023-07-02T04:32:50;12.45;;;8.70;;
57029;SDS011;42920;45.306;20.448;2023-07-02T04:35:16;15.60;;;9.35;;
57029;SDS011;42920;45.306;20.448;2023-07-02T04:37:42;12.30;;;8.45;;
57029;SDS011;42920;45.306;20.448;2023-07-02T04:40:09;13.35;;;9.65;;
57029;SDS011;42920;45.306;20.448;2023-07-02T04:42:38;15.52;;;9.40;;
57029;SDS011;42920;45.306;20.448;2023-07-02T04:45:06;12.95;;;9.05;;
57029;SDS011;42920;45.306;20.448;2023-07-02T04:47:33;16.88;;;9.73;;
57029;SDS011;42920;45.306;20.448;2023-07-02T04:50:00;13.82;;;9.13;;
57029;SDS011;42920;45.306;20.448;2023-07-02T04:52:26;12.98;;;9.60;;
57029;SDS011;42920;45.306;20.448;2023-07-02T04:54:52;12.48;;;9.35;;
57029;SDS011;42920;45.306;20.448;2023-07-02T04:57:17;13.18;;;9.45;;
57029;SDS011;42920;45.306;20.448;2023-07-02T04:59:43;13.80;;;9.57;;
57029;SDS011;42920;45.306;20.448;2023-07-02T05:02:09;14.98;;;9.25;;
57029;SDS011;42920;45.306;20.448;2023-07-02T05:04:35;15.75;;;9.85;;
57029;SDS011;42920;45.306;20.448;2023-07-02T05:07:04;13.70;;;8.73;;
57029;SDS011;42920;45.306;20.448;2023-07-02T05:09:30;18.33;;;10.23;;
57029;SDS011;42920;45.306;20.448;2023-07-02T05:11:57;12.60;;;9.23;;
57029;SDS011;42920;45.306;20.448;2023-07-02T05:14:23;15.77;;;9.82;;
57029;SDS011;42920;45.306;20.448;2023-07-02T05:16:48;15.30;;;9.38;;
57029;SDS011;42920;45.306;20.448;2023-07-02T05:19:15;15.65;;;9.43;;
57029;SDS011;42920;45.306;20.448;2023-07-02T05:21:41;16.65;;;9.98;;
57029;SDS011;42920;45.306;20.448;2023-07-02T05:24:07;17.00;;;10.10;;
57029;SDS011;42920;45.306;20.448;2023-07-02T05:26:33;17.42;;;10.23;;
57029;SDS011;42920;45.306;20.448;2023-07-02T05:29:00;13.73;;;9.82;;
57029;SDS011;42920;45.306;20.448;2023-07-02T05:31:26;17.23;;;10.40;;
57029;SDS011;42920;45.306;20.448;2023-07-02T05:33:52;15.75;;;9.60;;
57029;SDS011;42920;45.306;20.448;2023-07-02T05:36:19;15.05;;;9.75;;
57029;SDS011;42920;45.306;20.448;2023-07-02T05:38:44;15.70;;;9.93;;
57029;SDS011;42920;45.306;20.448;2023-07-02T05:41:10;14.90;;;9.93;;
57029;SDS011;42920;45.306;20.448;2023-07-02T05:43:36;16.35;;;10.18;;
57029;SDS011;42920;45.306;20.448;2023-07-02T05:46:01;15.13;;;10.20;;
57029;SDS011;42920;45.306;20.448;2023-07-02T05:48:27;14.63;;;10.13;;
57029;SDS011;42920;45.306;20.448;2023-07-02T05:50:53;15.80;;;10.20;;
57029;SDS011;42920;45.306;20.448;2023-07-02T05:53:19;16.23;;;10.00;;
57029;SDS011;42920;45.306;20.448;2023-07-02T05:55:45;16.45;;;10.50;;
57029;SDS011;42920;45.306;20.448;2023-07-02T05:58:12;15.25;;;9.35;;
57029;SDS011;42920;45.306;20.448;2023-07-02T06:00:37;15.07;;;9.75;;
57029;SDS011;42920;45.306;20.448;2023-07-02T06:03:06;17.95;;;9.82;;
57029;SDS011;42920;45.306;20.448;2023-07-02T06:05:32;13.40;;;8.85;;
57029;SDS011;42920;45.306;20.448;2023-07-02T06:07:58;14.30;;;8.70;;
57029;SDS011;42920;45.306;20.448;2023-07-02T06:10:23;14.48;;;10.30;;
57029;SDS011;42920;45.306;20.448;2023-07-02T06:12:49;18.63;;;9.93;;
57029;SDS011;42920;45.306;20.448;2023-07-02T06:15:15;17.88;;;9.55;;
57029;SDS011;42920;45.306;20.448;2023-07-02T06:17:40;11.00;;;8.70;;
57029;SDS011;42920;45.306;20.448;2023-07-02T06:20:06;13.18;;;8.85;;
57029;SDS011;42920;45.306;20.448;2023-07-02T06:22:32;11.68;;;8.88;;
57029;SDS011;42920;45.306;20.448;2023-07-02T06:24:58;14.05;;;9.65;;
57029;SDS011;42920;45.306;20.448;2023-07-02T06:27:24;14.73;;;8.55;;
57029;SDS011;42920;45.306;20.448;2023-07-02T06:29:49;14.13;;;8.73;;
57029;SDS011;42920;45.306;20.448;2023-07-02T06:32:16;14.02;;;9.65;;
57029;SDS011;42920;45.306;20.448;2023-07-02T06:34:42;9.48;;;7.47;;
57029;SDS011;42920;45.306;20.448;2023-07-02T06:37:08;11.73;;;8.15;;
57029;SDS011;42920;45.306;20.448;2023-07-02T06:39:34;11.75;;;8.25;;
57029;SDS011;42920;45.306;20.448;2023-07-02T06:42:00;10.88;;;8.18;;
57029;SDS011;42920;45.306;20.448;2023-07-02T06:44:25;12.02;;;8.00;;
57029;SDS011;42920;45.306;20.448;2023-07-02T06:46:51;13.57;;;7.82;;
57029;SDS011;42920;45.306;20.448;2023-07-02T06:49:17;11.60;;;7.20;;
57029;SDS011;42920;45.306;20.448;2023-07-02T06:51:42;12.38;;;8.25;;
57029;SDS011;42920;45.306;20.448;2023-07-02T06:54:08;9.68;;;6.97;;
57029;SDS011;42920;45.306;20.448;2023-07-02T06:56:34;10.27;;;6.95;;
57029;SDS011;42920;45.306;20.448;2023-07-02T06:59:00;11.10;;;7.68;;
57029;SDS011;42920;45.306;20.448;2023-07-02T07:01:26;12.27;;;7.72;;
57029;SDS011;42920;45.306;20.448;2023-07-02T07:03:52;9.50;;;6.78;;
57029;SDS011;42920;45.306;20.448;2023-07-02T07:06:17;8.52;;;6.22;;
57029;SDS011;42920;45.306;20.448;2023-07-02T07:08:43;11.38;;;6.65;;
57029;SDS011;42920;45.306;20.448;2023-07-02T07:11:09;10.82;;;6.20;;
57029;SDS011;42920;45.306;20.448;2023-07-02T07:13:34;9.20;;;5.65;;
57029;SDS011;42920;45.306;20.448;2023-07-02T07:16:00;8.75;;;6.10;;
57029;SDS011;42920;45.306;20.448;2023-07-02T07:18:26;10.40;;;7.25;;
57029;SDS011;42920;45.306;20.448;2023-07-02T07:20:51;9.20;;;5.45;;
57029;SDS011;42920;45.306;20.448;2023-07-02T07:23:20;11.07;;;6.93;;
57029;SDS011;42920;45.306;20.448;2023-07-02T07:25:46;11.60;;;6.85;;
57029;SDS011;42920;45.306;20.448;2023-07-02T07:28:12;14.52;;;6.40;;
57029;SDS011;42920;45.306;20.448;2023-07-02T07:30:40;8.23;;;5.88;;
57029;SDS011;42920;45.306;20.448;2023-07-02T07:33:06;11.00;;;6.97;;
57029;SDS011;42920;45.306;20.448;2023-07-02T07:35:32;11.45;;;6.38;;
57029;SDS011;42920;45.306;20.448;2023-07-02T07:37:58;8.93;;;6.78;;
57029;SDS011;42920;45.306;20.448;2023-07-02T07:40:23;13.10;;;7.22;;
57029;SDS011;42920;45.306;20.448;2023-07-02T07:42:49;10.90;;;7.72;;
57029;SDS011;42920;45.306;20.448;2023-07-02T07:45:15;10.13;;;7.35;;
57029;SDS011;42920;45.306;20.448;2023-07-02T07:47:40;9.98;;;7.13;;
57029;SDS011;42920;45.306;20.448;2023-07-02T07:50:06;12.32;;;7.88;;
57029;SDS011;42920;45.306;20.448;2023-07-02T07:52:36;10.45;;;7.38;;
57029;SDS011;42920;45.306;20.448;2023-07-02T07:55:06;9.63;;;7.82;;
57029;SDS011;42920;45.306;20.448;2023-07-02T07:57:32;12.18;;;9.35;;
57029;SDS011;42920;45.306;20.448;2023-07-02T07:59:58;10.20;;;6.57;;
57029;SDS011;42920;45.306;20.448;2023-07-02T08:02:24;15.80;;;9.00;;
57029;SDS011;42920;45.306;20.448;2023-07-02T08:04:50;9.45;;;7.03;;
57029;SDS011;42920;45.306;20.448;2023-07-02T08:07:16;10.38;;;7.97;;
57029;SDS011;42920;45.306;20.448;2023-07-02T08:09:41;10.18;;;8.23;;
57029;SDS011;42920;45.306;20.448;2023-07-02T08:12:07;14.65;;;7.68;;
57029;SDS011;42920;45.306;20.448;2023-07-02T08:14:33;9.38;;;6.90;;
57029;SDS011;42920;45.306;20.448;2023-07-02T08:17:02;13.10;;;6.60;;
57029;SDS011;42920;45.306;20.448;2023-07-02T08:19:28;10.35;;;6.85;;
57029;SDS011;42920;45.306;20.448;2023-07-02T08:21:54;18.40;;;7.20;;
57029;SDS011;42920;45.306;20.448;2023-07-02T08:24:20;13.13;;;7.78;;
57029;SDS011;42920;45.306;20.448;2023-07-02T08:26:46;14.10;;;7.07;;
57029;SDS011;42920;45.306;20.448;2023-07-02T08:29:13;10.18;;;7.35;;
57029;SDS011;42920;45.306;20.448;2023-07-02T08:31:39;10.75;;;7.93;;
57029;SDS011;42920;45.306;20.448;2023-07-02T08:34:05;14.23;;;8.60;;
57029;SDS011;42920;45.306;20.448;2023-07-02T08:36:31;9.77;;;6.57;;
57029;SDS011;42920;45.306;20.448;2023-07-02T08:38:56;8.77;;;6.15;;
57029;SDS011;42920;45.306;20.448;2023-07-02T08:41:22;8.57;;;6.55;;
57029;SDS011;42920;45.306;20.448;2023-07-02T08:43:49;9.40;;;6.75;;
57029;SDS011;42920;45.306;20.448;2023-07-02T08:46:16;9.65;;;6.65;;
57029;SDS011;42920;45.306;20.448;2023-07-02T08:48:42;7.53;;;6.22;;
57029;SDS011;42920;45.306;20.448;2023-07-02T08:51:08;10.52;;;6.65;;
57029;SDS011;42920;45.306;20.448;2023-07-02T08:53:33;9.65;;;6.95;;
57029;SDS011;42920;45.306;20.448;2023-07-02T08:56:00;11.88;;;6.40;;
57029;SDS011;42920;45.306;20.448;2023-07-02T08:58:26;9.27;;;6.80;;
57029;SDS011;42920;45.306;20.448;2023-07-02T09:03:31;8.77;;;6.47;;
57029;SDS011;42920;45.306;20.448;2023-07-02T09:05:56;9.70;;;6.45;;
57029;SDS011;42920;45.306;20.448;2023-07-02T09:08:23;9.40;;;6.90;;
57029;SDS011;42920;45.306;20.448;2023-07-02T09:10:53;11.63;;;7.47;;
57029;SDS011;42920;45.306;20.448;2023-07-02T09:13:19;10.38;;;7.43;;
57029;SDS011;42920;45.306;20.448;2023-07-02T09:15:45;10.95;;;7.90;;
57029;SDS011;42920;45.306;20.448;2023-07-02T09:20:44;9.10;;;7.20;;
57029;SDS011;42920;45.306;20.448;2023-07-02T09:23:10;10.98;;;7.57;;
57029;SDS011;42920;45.306;20.448;2023-07-02T09:25:37;11.90;;;7.60;;
57029;SDS011;42920;45.306;20.448;2023-07-02T09:28:17;10.73;;;6.40;;
57029;SDS011;42920;45.306;20.448;2023-07-02T09:33:21;8.15;;;6.47;;
57029;SDS011;42920;45.306;20.448;2023-07-02T09:35:53;11.50;;;7.07;;
57029;SDS011;42920;45.306;20.448;2023-07-02T09:38:20;10.35;;;6.90;;
57029;SDS011;42920;45.306;20.448;2023-07-02T09:40:50;11.65;;;7.53;;
57029;SDS011;42920;45.306;20.448;2023-07-02T09:43:17;11.55;;;6.95;;
57029;SDS011;42920;45.306;20.448;2023-07-02T09:45:44;7.68;;;6.28;;
57029;SDS011;42920;45.306;20.448;2023-07-02T09:48:14;9.75;;;7.18;;
57029;SDS011;42920;45.306;20.448;2023-07-02T09:50:45;10.10;;;7.72;;
57029;SDS011;42920;45.306;20.448;2023-07-02T09:53:12;9.98;;;7.18;;
57029;SDS011;42920;45.306;20.448;2023-07-02T09:55:39;10.02;;;6.65;;
57029;SDS011;42920;45.306;20.448;2023-07-02T09:58:06;11.48;;;7.53;;
57029;SDS011;42920;45.306;20.448;2023-07-02T10:00:32;10.88;;;7.55;;
57029;SDS011;42920;45.306;20.448;2023-07-02T10:02:58;10.27;;;7.50;;
57029;SDS011;42920;45.306;20.448;2023-07-02T10:05:26;9.73;;;6.55;;
57029;SDS011;42920;45.306;20.448;2023-07-02T10:08:10;10.48;;;6.50;;
57029;SDS011;42920;45.306;20.448;2023-07-02T10:10:38;9.50;;;6.07;;
57029;SDS011;42920;45.306;20.448;2023-07-02T10:13:04;9.73;;;5.30;;
57029;SDS011;42920;45.306;20.448;2023-07-02T10:15:30;6.82;;;5.07;;
57029;SDS011;42920;45.306;20.448;2023-07-02T10:20:39;7.70;;;5.63;;
57029;SDS011;42920;45.306;20.448;2023-07-02T10:23:07;9.23;;;5.22;;
57029;SDS011;42920;45.306;20.448;2023-07-02T10:25:35;6.82;;;5.60;;
57029;SDS011;42920;45.306;20.448;2023-07-02T10:28:23;9.88;;;5.47;;
57029;SDS011;42920;45.306;20.448;2023-07-02T10:30:51;9.18;;;6.40;;
57029;SDS011;42920;45.306;20.448;2023-07-02T10:33:18;7.22;;;5.13;;
57029;SDS011;42920;45.306;20.448;2023-07-02T10:35:45;11.95;;;6.72;;
57029;SDS011;42920;45.306;20.448;2023-07-02T10:38:23;9.20;;;6.45;;
57029;SDS011;42920;45.306;20.448;2023-07-02T10:40:54;9.50;;;6.28;;
57029;SDS011;42920;45.306;20.448;2023-07-02T10:43:30;8.20;;;5.47;;
57029;SDS011;42920;45.306;20.448;2023-07-02T10:45:57;9.88;;;6.03;;
57029;SDS011;42920;45.306;20.448;2023-07-02T10:48:27;8.98;;;5.05;;
57029;SDS011;42920;45.306;20.448;2023-07-02T10:50:53;9.23;;;6.32;;
57029;SDS011;42920;45.306;20.448;2023-07-02T10:53:19;8.50;;;5.53;;
57029;SDS011;42920;45.306;20.448;2023-07-02T10:55:45;8.98;;;6.25;;
57029;SDS011;42920;45.306;20.448;2023-07-02T10:58:18;10.48;;;5.72;;
57029;SDS011;42920;45.306;20.448;2023-07-02T11:00:44;7.75;;;5.65;;
57029;SDS011;42920;45.306;20.448;2023-07-02T11:03:20;8.30;;;5.88;;
57029;SDS011;42920;45.306;20.448;2023-07-02T11:05:47;7.93;;;5.80;;
57029;SDS011;42920;45.306;20.448;2023-07-02T11:08:14;13.60;;;9.40;;
57029;SDS011;42920;45.306;20.448;2023-07-02T11:10:40;9.65;;;6.57;;
57029;SDS011;42920;45.306;20.448;2023-07-02T11:13:13;10.80;;;6.35;;
57029;SDS011;42920;45.306;20.448;2023-07-02T11:15:42;9.45;;;6.20;;
57029;SDS011;42920;45.306;20.448;2023-07-02T11:20:37;8.48;;;6.03;;
57029;SDS011;42920;45.306;20.448;2023-07-02T11:23:04;9.23;;;6.30;;
57029;SDS011;42920;45.306;20.448;2023-07-02T11:25:41;10.23;;;6.35;;
57029;SDS011;42920;45.306;20.448;2023-07-02T11:28:06;14.30;;;7.15;;
57029;SDS011;42920;45.306;20.448;2023-07-02T11:30:32;9.95;;;7.72;;
57029;SDS011;42920;45.306;20.448;2023-07-02T11:33:00;10.50;;;6.88;;
57029;SDS011;42920;45.306;20.448;2023-07-02T11:35:35;9.10;;;6.95;;
57029;SDS011;42920;45.306;20.448;2023-07-02T11:38:01;11.82;;;7.47;;
57029;SDS011;42920;45.306;20.448;2023-07-02T11:40:27;10.68;;;7.72;;
57029;SDS011;42920;45.306;20.448;2023-07-02T11:42:52;11.93;;;7.60;;
57029;SDS011;42920;45.306;20.448;2023-07-02T11:45:18;11.57;;;7.57;;
57029;SDS011;42920;45.306;20.448;2023-07-02T11:47:44;13.88;;;8.25;;
57029;SDS011;42920;45.306;20.448;2023-07-02T11:50:10;12.05;;;7.78;;
57029;SDS011;42920;45.306;20.448;2023-07-02T11:52:36;12.05;;;7.57;;
57029;SDS011;42920;45.306;20.448;2023-07-02T11:55:01;11.63;;;7.53;;
57029;SDS011;42920;45.306;20.448;2023-07-02T11:57:27;9.23;;;6.40;;
57029;SDS011;42920;45.306;20.448;2023-07-02T11:59:53;11.80;;;8.30;;
57029;SDS011;42920;45.306;20.448;2023-07-02T12:02:18;16.67;;;7.40;;
57029;SDS011;42920;45.306;20.448;2023-07-02T12:04:44;9.05;;;7.20;;
57029;SDS011;42920;45.306;20.448;2023-07-02T12:07:10;11.73;;;7.65;;
57029;SDS011;42920;45.306;20.448;2023-07-02T12:09:36;12.30;;;7.18;;
57029;SDS011;42920;45.306;20.448;2023-07-02T12:12:02;10.38;;;7.80;;
57029;SDS011;42920;45.306;20.448;2023-07-02T12:14:28;8.27;;;6.10;;
57029;SDS011;42920;45.306;20.448;2023-07-02T12:16:54;14.32;;;6.95;;
57029;SDS011;42920;45.306;20.448;2023-07-02T12:19:20;11.98;;;6.57;;
57029;SDS011;42920;45.306;20.448;2023-07-02T12:21:45;10.35;;;6.35;;
57029;SDS011;42920;45.306;20.448;2023-07-02T12:24:11;9.85;;;6.57;;
57029;SDS011;42920;45.306;20.448;2023-07-02T12:26:37;10.52;;;6.88;;
57029;SDS011;42920;45.306;20.448;2023-07-02T12:29:04;11.80;;;6.80;;
57029;SDS011;42920;45.306;20.448;2023-07-02T12:31:30;9.85;;;5.97;;
57029;SDS011;42920;45.306;20.448;2023-07-02T12:33:56;7.53;;;5.50;;
57029;SDS011;42920;45.306;20.448;2023-07-02T12:36:22;8.27;;;5.63;;
57029;SDS011;42920;45.306;20.448;2023-07-02T12:38:48;8.93;;;5.18;;
57029;SDS011;42920;45.306;20.448;2023-07-02T12:41:14;10.60;;;6.22;;
57029;SDS011;42920;45.306;20.448;2023-07-02T12:43:39;9.50;;;7.05;;
57029;SDS011;42920;45.306;20.448;2023-07-02T12:46:05;10.35;;;7.07;;
57029;SDS011;42920;45.306;20.448;2023-07-02T12:48:31;12.25;;;7.57;;
57029;SDS011;42920;45.306;20.448;2023-07-02T12:50:58;11.00;;;6.88;;
57029;SDS011;42920;45.306;20.448;2023-07-02T12:53:25;14.10;;;7.28;;
57029;SDS011;42920;45.306;20.448;2023-07-02T12:55:51;11.02;;;8.07;;
57029;SDS011;42920;45.306;20.448;2023-07-02T12:58:18;11.75;;;7.90;;
57029;SDS011;42920;45.306;20.448;2023-07-02T13:00:44;11.45;;;8.10;;
57029;SDS011;42920;45.306;20.448;2023-07-02T13:03:10;13.93;;;7.60;;
57029;SDS011;42920;45.306;20.448;2023-07-02T13:05:37;12.23;;;8.10;;
57029;SDS011;42920;45.306;20.448;2023-07-02T13:08:03;10.43;;;8.35;;
57029;SDS011;42920;45.306;20.448;2023-07-02T13:10:29;14.27;;;8.48;;
57029;SDS011;42920;45.306;20.448;2023-07-02T13:12:56;12.07;;;7.93;;
57029;SDS011;42920;45.306;20.448;2023-07-02T13:15:22;16.13;;;8.25;;
57029;SDS011;42920;45.306;20.448;2023-07-02T13:17:47;10.48;;;7.68;;
57029;SDS011;42920;45.306;20.448;2023-07-02T13:20:13;11.98;;;7.97;;
57029;SDS011;42920;45.306;20.448;2023-07-02T13:22:39;13.10;;;8.73;;
57029;SDS011;42920;45.306;20.448;2023-07-02T13:25:05;16.23;;;8.27;;
57029;SDS011;42920;45.306;20.448;2023-07-02T13:27:32;11.50;;;8.35;;
57029;SDS011;42920;45.306;20.448;2023-07-02T13:29:58;10.50;;;7.72;;
57029;SDS011;42920;45.306;20.448;2023-07-02T13:32:24;12.30;;;7.53;;
57029;SDS011;42920;45.306;20.448;2023-07-02T13:34:49;12.15;;;8.10;;
57029;SDS011;42920;45.306;20.448;2023-07-02T13:37:15;11.32;;;7.10;;
57029;SDS011;42920;45.306;20.448;2023-07-02T13:39:45;8.85;;;6.78;;
57029;SDS011;42920;45.306;20.448;2023-07-02T13:42:11;9.85;;;7.18;;
57029;SDS011;42920;45.306;20.448;2023-07-02T13:44:37;9.27;;;6.40;;
57029;SDS011;42920;45.306;20.448;2023-07-02T13:47:03;11.40;;;6.40;;
57029;SDS011;42920;45.306;20.448;2023-07-02T13:49:30;10.13;;;6.63;;
57029;SDS011;42920;45.306;20.448;2023-07-02T13:51:57;11.95;;;6.78;;
57029;SDS011;42920;45.306;20.448;2023-07-02T13:54:22;9.23;;;6.50;;
57029;SDS011;42920;45.306;20.448;2023-07-02T13:56:48;7.80;;;5.97;;
57029;SDS011;42920;45.306;20.448;2023-07-02T13:59:14;9.75;;;6.63;;
57029;SDS011;42920;45.306;20.448;2023-07-02T14:01:41;8.68;;;5.90;;
57029;SDS011;42920;45.306;20.448;2023-07-02T14:04:07;9.23;;;6.38;;
57029;SDS011;42920;45.306;20.448;2023-07-02T14:06:33;9.85;;;6.05;;
57029;SDS011;42920;45.306;20.448;2023-07-02T14:08:58;11.10;;;6.90;;
57029;SDS011;42920;45.306;20.448;2023-07-02T14:11:24;11.10;;;7.05;;
57029;SDS011;42920;45.306;20.448;2023-07-02T14:13:52;8.38;;;5.93;;
57029;SDS011;42920;45.306;20.448;2023-07-02T14:16:19;9.45;;;6.68;;
57029;SDS011;42920;45.306;20.448;2023-07-02T14:18:44;8.20;;;6.07;;
57029;SDS011;42920;45.306;20.448;2023-07-02T14:21:10;10.80;;;5.93;;
57029;SDS011;42920;45.306;20.448;2023-07-02T14:23:36;10.88;;;6.05;;
57029;SDS011;42920;45.306;20.448;2023-07-02T14:26:01;9.73;;;6.78;;
57029;SDS011;42920;45.306;20.448;2023-07-02T14:28:27;9.10;;;5.80;;
57029;SDS011;42920;45.306;20.448;2023-07-02T14:30:58;10.30;;;6.55;;
57029;SDS011;42920;45.306;20.448;2023-07-02T14:33:25;8.75;;;6.68;;
57029;SDS011;42920;45.306;20.448;2023-07-02T14:35:52;13.60;;;7.53;;
57029;SDS011;42920;45.306;20.448;2023-07-02T14:38:18;10.98;;;7.60;;